Sebec, Maine
Current Conditions -  °F | °C
As of 12:53 PM on Friday 24 Oct 2014 (Local Time) from KMLT Reporting Station
Haze Haze  
Wind Chill: 39°   Ceiling: 1400
Heat Index: 45°   Visibility: 4mi
Dew Point: 42°   Wind: 13mph
Humidity: 90%   Direction: 20°NNE
Pressure: 29.7"   Gusts: 21mph
Location:  45.27°N, 69.12°W
Report Text: KMLT 241653Z AUTO 02011G18KT 4SM BR OVC014 07/06 A2970 RMK AO2 SLP064 T00720056
Loading
Personal Weather Stations






























Interactive Weather Map
Tropical Storm Tracking
New forecast layout! Learn more

10-Day Weather Forecast

Advertisements
Track Severe Weather on mobile